Dauntless Aviation
Airports Asia China
ZGSZ
SZX

Shenzhen Bao'an International Airport

Shenzhen, CHINA

Airport Info
Suggest Updated Information for this Airport

Location

Latitude / Longitude: 22°38'21"N / 113°48'39"E
  22°38.358'N / 113°48.66'E
  22.6393 / 113.8110

Nearby radio navigation aids

QJ SHENZHEN NDB. 155.7° 10.4nm from QJ to field.
SZX SHENZHEN VOR/DME on field.

Runway Information

Runway 15 /33

Dimensions: 11155 x 148 ft.
Surface: ASP
 
Runway 15
Runway 33
Latitude: 22.651889 22.624778
Longitude: 113.803903 113.819431
Elevation: 12 ft. 12 ft.
Runway true heading: 153 333
 

Instrument Procedures

  Parking / Docking Chart
  Aerodrome Chart
  Aerodrome Chart

STARs (Standard Terminal Arrivals)

  STAR RNAV Rwy 15/16
  STAR RNAV Rwy 33/34
  STAR Rwy 15/16
  STAR Rwy 33/34
  STAR Rwy 15/16
  STAR Rwy 33/34

IAPs (Instrument Approach Procedures)

  Aerodrome Textual Information 01
  Aerodrome Textual Information 02
  Aerodrome Textual Information 03
  Aerodrome Textual Information 04
  Aerodrome Textual Information 05
  Aerodrome Textual Information 06
  Aerodrome Textual Information 07
  Aerodrome Textual Information 08
  Aerodrome Textual Information 09
  Aerodrome Textual Information 10
  Aerodrome Textual Information 11
  Aerodrome Textual Information 12
  Aerodrome Textual Information 13
  Aerodrome Textual Information 14
  Aerodrome Textual Information 15
  Aerodrome Textual Information 16
  Aerodrome Textual Information 17
  Aerodrome Textual Information 18
  Aerodrome Textual Information 19
  Aerodrome Textual Information 20
  Aerodrome Textual Information 21
  Aerodrome Textual Information 22
  Aerodrome Textual Information 23
  Aerodrome Textual Information 24
  Aerodrome Textual Information 25
  Aerodrome Textual Information 26
  Aerodrome Textual Information 27
  Aerodrome Textual Information 28
  Aerodrome Textual Information 29
  Aerodrome Textual Information 30
  Aerodrome Textual Information 31
  Aerodrome Textual Information 32
  Aerodrome Textual Information 33
  Aerodrome Textual Information 34
  Aerodrome Textual Information 35
  RNAV ILS/DME Z Rwy 15
  RNAV ILS/DME Z Rwy 16
  RNAV ILS/DEM Z Rwy 33
  RNAV ILS/DME Z Rwy 34
  ILS/DME Y Rwy 15
  ILS/DME Y Rwy 16
  ILS/DME Y Rwy 33
  ILS/DME X Rwy 33 SHK U/S
  ILS DME Y Rwy 34
  ILS/DME X Rwy 34 SHK U/S
  Aircraft Standard Push Back Procedure
  Aircraft Standard Push Back Procedure 2
  Operational Rules for A380
  Aerodrome Obstacle Chart Rwy 15/33
  Aerodrome Obstacle Chart Rwy 16/34

Departure Procedures

  SID RNAV Rwy 15
  SID RNAV Rwy 16
  SID RNAV Rwy 33
  SID RNAV Rwy 34
  SID Rwy 15
  SID Rwy 16
  SID Rwy 33
  SID Rwy 34
  SID Rwy 15
  SID Rwy 16
  SID Rwy 33
  SID Rwy 34
Satellite photo at:
Airport distance calculator
From:
Weather Reports

METAR

ZGSZ

ZGSZ 270800Z 02005MPS 350V050 9999 SCT040 14/05 Q1016 NOSIG
VHHH
20.2nm SE
VHHH 270830Z 34010KT 9999 -RA FEW040 13/05 Q1016 NOSIG
VMMC
32.0nm S
VMMC 270800Z 35016KT 9999 FEW035 SCT048 13/07 Q1015 NOSIG

TAF

ZGSZ
TAF ZGSZ 270307Z 2706/2806 02006MPS 8000 FEW030 TX17/2806Z TN10/2722Z
VHHH
20.2nm SE
TAF VHHH 270500Z 2706/2812 03010KT 9999 FEW030 TX15/2706Z TX15/2806Z TN11/2723Z TEMPO 2706/2710 33010KT TEMPO 2804/2810 33010KT
VMMC
32.0nm S
TAF VMMC 270500Z 2706/2812 36015KT 9999 FEW025 SCT040
Safelog

 

Dauntless Aviation

© 2007-2020 Dauntless Aviation, all rights reserved
Information provided via PilotNav comes from a variety of official and unofficial data sources. As errors are possible, do not use PilotNav for primary flight planning purposes. Verify any information that you receive via PilotNav with current and canonical charts and other official documents. The material in this database is subject to database copyrights held by Dauntless Aviation and may not be copied without the express permission of Dauntless Aviation - licenses for use of part of all of this data are available for purchase; enquire via the Dauntless Aviation helpdesk. A number of mechanisms and markers exist in the database to protect against and identify infringement / copyright. Automated queries against this website are stictly prohibited, and all activity is logged and analyzed.